Hlavní strana
METAR-TAF:

METAR-TAF

Letiště :

Eppley Airfield

Omaha, Nebraska, Spojené státy americké

zeměpisná šířka: 41-18-37N, zeměpisná délka: 095-53-57W, výška: 299 m

Aktuální stav počasí

Zpráva byla vytvořena před 18 minutami, v 09:52 UTC
Severní vítr 9 kt
Teplota 1°C
Vlhkost vzduchu 75%
Tlak 1012 hPa
Viditelnost: 16.1 km
Zataženo ve výšce 14000 ft

METAR: KOMA 240952Z 35009KT 10SM OVC140 01/M03 A2989 RMK AO2 SLP124 T00061028 $

Čas: 04:10 (10:10 UTC)

Předpověď počasí

Zpráva byla vytvořena před 4 hodinami a 50 minutami, v 05:20 UTC
Předpověď platná od 24 v 06 UTC do 25 v 06 UTC
Severoseverovýchodní vítr 8 kt
Viditelnost: 10 km
Zataženo ve výšce 12000 ft
Od 24 v 1800 UTC
Východoseverovýchodní vítr 8 kt
Viditelnost: 10 km
Oblačno až skoro zataženo ve výšce 15000 ft

TAF: KOMA 240520Z 2406/2506 02008KT P6SM OVC120 FM241800 06008KT P6SM BKN150

Stav a předpovědi počasí z více než 4 000 letišť (zprávy METAR a TAF).

Červené a žluté tečky na mapě představují dostupné meteorologické stanice.

Když kurzor umístíte na tečku, zobrazí se název stanice.

Pak kliknutím zobrazíte stav a předpověď počasí.

Chcete-li změnit mapu, kliknutím na zelené tlačítko se znaménkem +mapu přiblížíte, kliknutím na zelené tlačítko se znaménkem – mapu oddálíte a kliknutím na zelené šipky přejdete na sousední mapy.


METAR-TAF: